createdAt,value
2023-05-23T00:01:28.794Z,9.38
2023-05-23T00:04:02.357Z,9.82
2023-05-23T00:06:32.513Z,9.57
2023-05-23T00:09:03.465Z,9.52
2023-05-23T00:11:34.828Z,10.35
2023-05-23T00:14:04.734Z,9.32
2023-05-23T00:16:41.725Z,9.45
2023-05-23T00:19:12.361Z,9.13
2023-05-23T00:21:43.975Z,9.65
2023-05-23T00:24:13.594Z,10.07
2023-05-23T00:26:43.406Z,10.20
2023-05-23T00:29:17.314Z,9.80
2023-05-23T00:31:49.799Z,10.25
2023-05-23T00:34:20.517Z,10.50
2023-05-23T00:36:52.292Z,9.45
2023-05-23T00:39:22.717Z,9.52
2023-05-23T00:41:53.429Z,9.50
2023-05-23T00:44:24.885Z,10.25
2023-05-23T00:46:58.606Z,10.23
2023-05-23T00:49:30.871Z,10.52
2023-05-23T00:52:01.187Z,10.00
2023-05-23T00:54:33.151Z,10.32
2023-05-23T00:57:02.854Z,10.50
2023-05-23T00:59:33.898Z,10.23
2023-05-23T01:02:06.858Z,10.48
2023-05-23T01:04:37.511Z,9.82
2023-05-23T01:07:08.557Z,10.52
2023-05-23T01:09:40.328Z,9.40
2023-05-23T01:12:21.074Z,10.80
2023-05-23T01:15:05.028Z,9.27
2023-05-23T01:17:47.974Z,9.70
2023-05-23T01:20:22.063Z,9.88
2023-05-23T01:23:22.687Z,9.10
2023-05-23T01:26:26.800Z,8.63
2023-05-23T01:29:10.776Z,9.57
2023-05-23T01:31:47.666Z,8.40
2023-05-23T01:34:19.172Z,9.20
2023-05-23T01:36:53.707Z,8.80
2023-05-23T01:39:23.518Z,9.52
2023-05-23T01:41:55.091Z,8.85
2023-05-23T01:44:27.644Z,9.70
2023-05-23T01:46:58.396Z,9.88
2023-05-23T01:49:28.396Z,9.57
2023-05-23T01:51:58.206Z,9.35
2023-05-23T01:54:29.964Z,10.20
2023-05-23T01:57:00.739Z,9.88
2023-05-23T01:59:32.364Z,9.13
2023-05-23T02:02:03.279Z,9.98
2023-05-23T02:04:37.118Z,9.57
2023-05-23T02:07:07.945Z,9.45
2023-05-23T02:09:38.866Z,9.32
2023-05-23T02:12:09.926Z,9.57
2023-05-23T02:14:42.796Z,9.10
2023-05-23T02:17:12.867Z,9.77
2023-05-23T02:19:44.160Z,9.02
2023-05-23T02:22:18.697Z,8.30
2023-05-23T02:24:48.704Z,8.32
2023-05-23T02:27:18.610Z,9.20
2023-05-23T02:29:50.062Z,8.75
2023-05-23T02:32:20.297Z,8.68
2023-05-23T02:34:51.342Z,8.63
2023-05-23T02:37:21.245Z,8.60
2023-05-23T02:39:51.073Z,8.77
2023-05-23T02:42:20.557Z,7.90
2023-05-23T02:44:53.137Z,8.48
2023-05-23T02:47:23.084Z,8.20
2023-05-23T02:49:53.676Z,8.30
2023-05-23T02:52:23.177Z,8.02
2023-05-23T02:54:53.407Z,7.88
2023-05-23T02:57:24.747Z,8.10
2023-05-23T02:59:57.219Z,8.27
2023-05-23T03:02:27.438Z,8.02
2023-05-23T03:05:00.662Z,7.82
2023-05-23T03:07:34.959Z,7.90
2023-05-23T03:10:04.887Z,7.65
2023-05-23T03:12:35.183Z,7.00
2023-05-23T03:15:07.266Z,7.30
2023-05-23T03:17:39.768Z,7.70
2023-05-23T03:20:10.366Z,7.30
2023-05-23T03:22:43.985Z,8.27
2023-05-23T03:25:13.887Z,7.75
2023-05-23T03:27:43.584Z,8.25
2023-05-23T03:30:18.105Z,7.50
2023-05-23T03:32:48.483Z,7.38
2023-05-23T03:35:18.560Z,7.80
2023-05-23T03:37:48.984Z,7.70
2023-05-23T03:40:18.892Z,8.13
2023-05-23T03:42:50.543Z,8.57
2023-05-23T03:45:22.206Z,9.00
2023-05-23T03:47:52.058Z,8.25
2023-05-23T03:50:22.334Z,8.73
2023-05-23T03:52:52.052Z,8.88
2023-05-23T03:55:22.979Z,9.50
2023-05-23T03:57:54.125Z,9.15
2023-05-23T04:00:25.572Z,9.02
2023-05-23T04:02:55.550Z,9.55
2023-05-23T04:05:28.787Z,9.55
2023-05-23T04:08:01.774Z,8.90
2023-05-23T04:10:33.531Z,8.30
2023-05-23T04:13:03.349Z,8.48
2023-05-23T04:15:35.712Z,7.90
2023-05-23T04:18:15.554Z,8.25
2023-05-23T04:20:45.575Z,8.02
2023-05-23T04:23:15.082Z,8.23
2023-05-23T04:25:50.027Z,8.23
2023-05-23T04:28:29.352Z,8.27
2023-05-23T04:31:03.217Z,8.23
2023-05-23T04:33:36.647Z,7.45
2023-05-23T04:36:11.073Z,7.78
2023-05-23T04:38:44.375Z,8.30
2023-05-23T04:41:16.709Z,8.63
2023-05-23T04:44:00.785Z,8.02
2023-05-23T04:46:42.603Z,8.90
2023-05-23T04:49:23.241Z,9.07
2023-05-23T04:51:53.367Z,9.27
2023-05-23T04:54:30.965Z,9.02
2023-05-23T04:57:02.956Z,8.38
2023-05-23T04:59:33.151Z,9.63
2023-05-23T05:02:04.476Z,8.95
2023-05-23T05:04:34.093Z,10.52
2023-05-23T05:07:04.822Z,10.18
2023-05-23T05:09:34.844Z,10.05
2023-05-23T05:12:04.964Z,10.18
2023-05-23T05:14:34.590Z,9.43
2023-05-23T05:17:06.590Z,8.75
2023-05-23T05:19:44.545Z,8.75
2023-05-23T05:22:14.455Z,8.07
2023-05-23T05:24:43.958Z,8.80
2023-05-23T05:27:13.879Z,8.20
2023-05-23T05:29:44.723Z,7.47
2023-05-23T05:32:15.842Z,8.00
2023-05-23T05:34:49.251Z,7.75
2023-05-23T05:37:21.522Z,7.63
2023-05-23T05:39:51.646Z,7.57
2023-05-23T05:42:21.243Z,7.40
2023-05-23T05:44:51.568Z,7.68
2023-05-23T05:47:23.252Z,7.80
2023-05-23T05:49:55.284Z,8.00
2023-05-23T05:52:25.382Z,8.27
2023-05-23T05:54:55.324Z,7.93
2023-05-23T05:57:26.878Z,7.70
2023-05-23T05:59:59.899Z,8.55
2023-05-23T06:02:32.572Z,7.13
2023-05-23T06:05:02.257Z,6.93
2023-05-23T06:07:32.681Z,7.00
2023-05-23T06:10:03.826Z,7.63
2023-05-23T06:12:34.757Z,7.53
2023-05-23T06:15:05.899Z,8.00
2023-05-23T06:17:37.827Z,7.35
2023-05-23T06:20:09.525Z,7.28
2023-05-23T06:22:42.190Z,7.55
2023-05-23T06:25:13.880Z,7.30
2023-05-23T06:27:45.305Z,6.65
2023-05-23T06:30:16.347Z,7.63
2023-05-23T06:32:49.674Z,6.72
2023-05-23T06:35:21.294Z,6.10
2023-05-23T06:37:53.767Z,7.03
2023-05-23T06:40:24.089Z,6.68
2023-05-23T06:42:54.216Z,6.63
2023-05-23T06:45:49.224Z,7.05
2023-05-23T06:48:20.760Z,6.43
2023-05-23T06:50:53.263Z,6.70
2023-05-23T06:53:25.813Z,6.72
2023-05-23T06:55:56.545Z,7.22
2023-05-23T06:58:27.297Z,6.68
2023-05-23T07:01:00.597Z,7.18
2023-05-23T07:03:36.225Z,7.75
2023-05-23T07:06:09.828Z,7.95
2023-05-23T07:08:41.694Z,7.65
2023-05-23T07:11:12.308Z,8.43
2023-05-23T07:14:03.443Z,7.35
2023-05-23T07:16:44.258Z,7.70
2023-05-23T07:19:17.329Z,7.28
2023-05-23T07:21:52.727Z,6.93
2023-05-23T07:24:24.515Z,6.93
2023-05-23T07:26:57.465Z,6.57
2023-05-23T07:29:28.621Z,6.63
2023-05-23T07:31:59.441Z,6.35
2023-05-23T07:34:32.228Z,6.90
2023-05-23T07:37:04.292Z,6.95
2023-05-23T07:39:41.481Z,7.22
2023-05-23T07:42:11.628Z,7.43
2023-05-23T07:44:43.561Z,6.68
2023-05-23T07:47:13.273Z,7.40
2023-05-23T07:49:45.224Z,6.47
2023-05-23T07:52:15.048Z,7.70
2023-05-23T07:54:47.005Z,7.65
2023-05-23T07:57:18.273Z,7.28
2023-05-23T07:59:48.272Z,7.63
2023-05-23T08:02:18.096Z,7.13
2023-05-23T08:04:50.550Z,7.07
2023-05-23T08:07:22.310Z,6.88
2023-05-23T08:10:06.360Z,7.53
2023-05-23T08:12:37.098Z,6.97
2023-05-23T08:15:15.408Z,7.03
2023-05-23T08:17:49.880Z,7.38
2023-05-23T08:20:22.521Z,7.35
2023-05-23T08:22:53.445Z,6.57
2023-05-23T08:25:23.307Z,7.50
2023-05-23T08:27:54.020Z,7.80
2023-05-23T08:30:41.148Z,6.80
2023-05-23T08:33:11.499Z,6.68
2023-05-23T08:35:44.622Z,6.68
2023-05-23T08:38:15.971Z,7.40
2023-05-23T08:41:03.610Z,7.13
2023-05-23T08:43:34.226Z,7.28
2023-05-23T08:46:05.833Z,7.93
2023-05-23T08:48:39.279Z,7.72
2023-05-23T08:51:13.286Z,7.43
2023-05-23T08:53:47.507Z,7.05
2023-05-23T08:56:19.777Z,6.63
2023-05-23T08:58:53.585Z,6.93
2023-05-23T09:01:26.892Z,7.20
2023-05-23T09:04:05.291Z,7.13
2023-05-23T09:07:12.268Z,7.10
2023-05-23T09:09:42.297Z,7.43
2023-05-23T09:12:16.416Z,7.70
2023-05-23T09:14:49.292Z,7.72
2023-05-23T09:17:21.013Z,7.93
2023-05-23T09:19:50.749Z,7.60
2023-05-23T09:22:34.614Z,7.57
2023-05-23T09:25:11.676Z,7.53
2023-05-23T09:27:47.553Z,7.63
2023-05-23T09:30:23.792Z,8.05
2023-05-23T09:33:05.386Z,7.30
2023-05-23T09:35:36.729Z,8.15
2023-05-23T09:38:10.738Z,8.50
2023-05-23T09:40:40.757Z,8.98
2023-05-23T09:43:10.670Z,9.65
2023-05-23T09:45:40.585Z,8.27
2023-05-23T09:48:15.623Z,8.82
2023-05-23T09:50:51.796Z,8.52
2023-05-23T09:57:13.426Z,7.32
2023-05-23T10:00:39.500Z,7.75
2023-05-23T10:03:19.205Z,8.23
2023-05-23T10:05:50.767Z,8.55
2023-05-23T10:08:30.404Z,9.25
2023-05-23T10:11:47.003Z,8.35
2023-05-23T10:14:24.095Z,8.82
2023-05-23T10:17:11.009Z,9.07
2023-05-23T10:20:01.296Z,8.77
2023-05-23T10:22:37.139Z,9.23
2023-05-23T10:25:13.846Z,9.57
2023-05-23T10:27:52.972Z,8.73
2023-05-23T10:30:24.094Z,9.60
2023-05-23T10:32:54.975Z,8.63
2023-05-23T10:35:31.842Z,8.88
2023-05-23T10:38:07.039Z,9.40
2023-05-23T10:40:52.522Z,8.93
2023-05-23T10:43:29.364Z,9.73
2023-05-23T10:45:59.308Z,10.48
2023-05-23T10:48:36.599Z,9.57
2023-05-23T10:51:08.351Z,9.13
2023-05-23T10:53:40.040Z,8.40
2023-05-23T10:56:12.927Z,7.85
2023-05-23T10:58:42.607Z,9.15
2023-05-23T11:01:18.355Z,9.23
2023-05-23T11:03:56.347Z,8.50
2023-05-23T11:06:34.561Z,9.02
2023-05-23T11:09:08.782Z,8.18
2023-05-23T11:12:07.280Z,8.75
2023-05-23T11:14:55.896Z,8.30
2023-05-23T11:17:35.489Z,7.18
2023-05-23T11:20:10.156Z,6.45
2023-05-23T11:22:40.316Z,7.15
2023-05-23T11:25:10.705Z,7.50
2023-05-23T11:27:43.409Z,7.13
2023-05-23T11:30:15.162Z,6.82
2023-05-23T11:32:52.067Z,6.35
2023-05-23T11:35:24.015Z,6.78
2023-05-23T11:37:54.647Z,7.40
2023-05-23T11:40:32.040Z,7.50
2023-05-23T11:43:05.444Z,7.47
2023-05-23T11:45:35.976Z,6.93
2023-05-23T11:48:09.965Z,7.35
2023-05-23T11:50:46.971Z,6.10
2023-05-23T11:53:19.626Z,6.35
2023-05-23T11:55:54.157Z,6.18
2023-05-23T11:58:29.078Z,5.88
2023-05-23T12:01:02.882Z,6.60
2023-05-23T12:03:33.271Z,6.25
2023-05-23T12:06:03.649Z,6.10
2023-05-23T12:08:33.359Z,6.47
2023-05-23T12:11:04.590Z,6.00
2023-05-23T12:13:35.737Z,6.50
2023-05-23T12:16:06.446Z,6.72
2023-05-23T12:18:36.592Z,6.38
2023-05-23T12:21:08.627Z,6.13
2023-05-23T12:23:38.977Z,5.78
2023-05-23T12:26:10.581Z,6.55
2023-05-23T12:28:46.902Z,6.03
2023-05-23T12:31:19.543Z,5.85
2023-05-23T12:33:52.154Z,6.05
2023-05-23T12:36:27.451Z,6.60
2023-05-23T12:39:06.126Z,5.93
2023-05-23T12:41:36.336Z,6.40
2023-05-23T12:44:07.905Z,6.28
2023-05-23T12:46:37.753Z,6.00
2023-05-23T12:49:08.035Z,6.00
2023-05-23T12:51:38.462Z,6.25
2023-05-23T12:54:08.569Z,6.22
2023-05-23T12:56:38.291Z,5.82
2023-05-23T12:59:11.467Z,6.30
2023-05-23T13:01:41.957Z,6.10
2023-05-23T13:04:13.969Z,6.45
2023-05-23T13:06:44.177Z,5.82
2023-05-23T13:09:13.802Z,5.78
2023-05-23T13:11:44.627Z,5.80
2023-05-23T13:14:15.777Z,5.57
2023-05-23T13:16:46.106Z,5.53
2023-05-23T13:19:16.105Z,5.72
2023-05-23T13:21:47.369Z,5.60
2023-05-23T13:24:19.430Z,5.93
2023-05-23T13:26:49.124Z,5.45
2023-05-23T13:29:21.708Z,5.53
2023-05-23T13:31:51.721Z,5.22
2023-05-23T13:34:21.547Z,5.70
2023-05-23T13:36:51.749Z,5.15
2023-05-23T13:39:23.094Z,5.50
2023-05-23T13:41:52.910Z,5.10
2023-05-23T13:44:24.361Z,5.05
2023-05-23T13:46:54.126Z,4.88
2023-05-23T13:49:23.891Z,5.50
2023-05-23T13:51:53.496Z,5.63
2023-05-23T13:54:22.992Z,5.70
2023-05-23T13:56:52.806Z,6.03
2023-05-23T13:59:23.965Z,5.90
2023-05-23T14:01:53.564Z,5.00
2023-05-23T14:04:23.802Z,5.78
2023-05-23T14:06:53.595Z,5.47
2023-05-23T14:09:23.533Z,5.00
2023-05-23T14:11:53.232Z,5.43
2023-05-23T14:14:24.568Z,6.03
2023-05-23T14:16:54.077Z,5.55
2023-05-23T14:19:23.828Z,5.68
2023-05-23T14:21:55.130Z,5.55
2023-05-23T14:24:24.859Z,5.93
2023-05-23T14:26:54.651Z,5.65
2023-05-23T14:29:25.697Z,5.80
2023-05-23T14:31:55.346Z,6.00
2023-05-23T14:34:25.007Z,5.90
2023-05-23T14:36:54.827Z,6.22
2023-05-23T14:39:25.808Z,5.80
2023-05-23T14:41:55.567Z,6.47
2023-05-23T14:44:26.561Z,6.00
2023-05-23T14:46:57.956Z,6.00
2023-05-23T14:49:29.312Z,6.45
2023-05-23T14:51:59.964Z,6.35
2023-05-23T14:54:29.863Z,5.45
2023-05-23T14:57:00.174Z,6.38
2023-05-23T14:59:32.371Z,6.13
2023-05-23T15:02:02.653Z,5.97
2023-05-23T15:04:32.734Z,6.35
2023-05-23T15:07:02.491Z,6.22
2023-05-23T15:09:32.841Z,6.50
2023-05-23T15:12:02.766Z,6.65
2023-05-23T15:14:36.247Z,6.85
2023-05-23T15:17:09.114Z,6.60
2023-05-23T15:19:39.671Z,6.47
2023-05-23T15:22:22.272Z,6.68
2023-05-23T15:25:01.588Z,6.82
2023-05-23T15:27:31.507Z,6.15
2023-05-23T15:30:02.829Z,6.85
2023-05-23T15:32:32.710Z,5.65
2023-05-23T15:35:02.300Z,6.60
2023-05-23T15:37:33.630Z,6.47
2023-05-23T15:40:04.257Z,6.65
2023-05-23T15:42:33.970Z,6.68
2023-05-23T15:45:05.405Z,6.07
2023-05-23T15:47:35.283Z,6.53
2023-05-23T15:50:04.737Z,6.28
2023-05-23T15:52:34.440Z,6.15
2023-05-23T15:55:05.993Z,6.00
2023-05-23T15:57:35.999Z,5.75
2023-05-23T16:00:08.286Z,5.78
2023-05-23T16:02:41.417Z,6.30
2023-05-23T16:05:11.382Z,5.85
2023-05-23T16:07:41.808Z,5.68
2023-05-23T16:10:14.290Z,4.82
2023-05-23T16:12:44.200Z,4.75
2023-05-23T16:15:15.448Z,4.85
2023-05-23T16:17:45.173Z,4.78
2023-05-23T16:20:16.290Z,4.43
2023-05-23T16:22:46.524Z,4.88
2023-05-23T16:25:16.859Z,4.55
2023-05-23T16:27:46.661Z,4.32
2023-05-23T16:30:18.212Z,4.28
2023-05-23T16:32:49.093Z,5.50
2023-05-23T16:35:18.872Z,7.30
2023-05-23T16:37:48.572Z,4.38
2023-05-23T16:40:19.845Z,4.50
2023-05-23T16:42:49.637Z,4.47
2023-05-23T16:45:21.481Z,4.63
2023-05-23T16:47:51.640Z,4.50
2023-05-23T16:50:21.625Z,4.80
2023-05-23T16:52:52.450Z,4.47
2023-05-23T16:55:22.578Z,4.78
2023-05-23T16:57:52.800Z,4.85
2023-05-23T17:00:24.366Z,4.60
2023-05-23T17:02:59.398Z,4.50
2023-05-23T17:05:31.047Z,4.90
2023-05-23T17:08:01.051Z,4.63
2023-05-23T17:10:33.878Z,4.80
2023-05-23T17:13:04.364Z,4.90
2023-05-23T17:15:36.266Z,5.07
2023-05-23T17:18:09.135Z,5.20
2023-05-23T17:20:40.767Z,4.40
2023-05-23T17:23:12.172Z,5.13
2023-05-23T17:25:56.573Z,4.72
2023-05-23T17:28:32.093Z,4.75
2023-05-23T17:31:09.537Z,5.10
2023-05-23T17:33:43.418Z,4.53
2023-05-23T17:36:18.040Z,4.65
2023-05-23T17:38:56.972Z,5.00
2023-05-23T17:41:41.204Z,4.35
2023-05-23T17:44:14.610Z,4.43
2023-05-23T17:46:46.855Z,4.10
2023-05-23T17:49:16.793Z,4.55
2023-05-23T17:51:47.319Z,4.40
2023-05-23T17:54:20.827Z,5.22
2023-05-23T17:56:51.061Z,4.70
2023-05-23T17:59:21.461Z,5.35
2023-05-23T18:01:52.708Z,4.35
2023-05-23T18:04:26.966Z,4.70
2023-05-23T18:06:59.272Z,4.78
2023-05-23T18:09:33.016Z,5.47
2023-05-23T18:12:04.464Z,5.45
2023-05-23T18:14:50.046Z,5.15
2023-05-23T18:17:31.016Z,5.43
2023-05-23T18:22:55.745Z,5.05
2023-05-23T18:25:41.010Z,5.28
2023-05-23T18:28:14.991Z,5.47
2023-05-23T18:31:10.215Z,5.55
2023-05-23T18:33:45.389Z,5.25
2023-05-23T18:36:17.717Z,4.70
2023-05-23T18:41:42.533Z,5.00
2023-05-23T18:44:12.860Z,5.15
2023-05-23T18:51:26.635Z,5.00
2023-05-23T18:54:13.962Z,4.78
2023-05-23T18:57:51.343Z,4.97
2023-05-23T19:00:29.867Z,4.95
2023-05-23T19:03:05.752Z,4.63
2023-05-23T19:05:38.187Z,4.10
2023-05-23T19:08:13.949Z,4.45
2023-05-23T19:10:45.598Z,4.60
2023-05-23T19:13:24.410Z,4.43
2023-05-23T19:16:24.558Z,4.45
2023-05-23T19:18:54.278Z,4.55
2023-05-23T19:26:01.696Z,4.40
2023-05-23T19:28:41.831Z,4.50
2023-05-23T19:31:19.840Z,4.20
2023-05-23T19:38:07.117Z,4.40
2023-05-23T19:40:41.795Z,4.75
2023-05-23T19:47:45.150Z,3.97
2023-05-23T19:50:22.938Z,4.15
2023-05-23T19:57:08.945Z,4.47
2023-05-23T20:04:08.380Z,4.82
2023-05-23T20:06:45.219Z,4.38
2023-05-23T20:09:20.295Z,4.25
2023-05-23T20:15:53.356Z,5.30
2023-05-23T20:18:28.147Z,5.70
2023-05-23T20:25:24.305Z,4.75
2023-05-23T20:27:59.125Z,4.82
2023-05-23T20:30:46.520Z,5.38
2023-05-23T20:37:54.695Z,5.13
2023-05-23T20:40:45.331Z,5.18
2023-05-23T20:47:47.539Z,4.93
2023-05-23T20:50:28.566Z,4.65
2023-05-23T20:57:08.125Z,5.18
2023-05-23T20:59:45.413Z,5.20
2023-05-23T21:06:41.785Z,5.25
2023-05-23T21:09:18.034Z,4.82
2023-05-23T21:15:11.850Z,4.22
2023-05-23T21:17:48.949Z,4.25
2023-05-23T21:20:26.085Z,4.10
2023-05-23T21:23:01.647Z,4.22
2023-05-23T21:25:37.179Z,3.83
2023-05-23T21:28:17.140Z,3.95
2023-05-23T21:30:55.616Z,5.20
2023-05-23T21:33:30.304Z,4.45
2023-05-23T21:36:05.417Z,5.93
2023-05-23T21:38:40.792Z,4.70
2023-05-23T21:41:19.272Z,5.07
2023-05-23T21:43:59.314Z,6.03
2023-05-23T21:46:36.871Z,5.70
2023-05-23T21:49:17.262Z,5.85
2023-05-23T21:52:03.876Z,5.90
2023-05-23T21:54:43.937Z,5.70
2023-05-23T21:57:21.127Z,5.80
2023-05-23T21:59:57.384Z,6.03
2023-05-23T22:02:29.896Z,5.00
2023-05-23T22:05:09.697Z,5.15
2023-05-23T22:07:46.270Z,5.05
2023-05-23T22:10:18.329Z,6.00
2023-05-23T22:15:37.943Z,5.72
2023-05-23T22:18:51.119Z,6.65
2023-05-23T22:21:28.650Z,7.20
2023-05-23T22:24:00.155Z,6.72
2023-05-23T22:26:30.551Z,7.28
2023-05-23T22:29:02.901Z,7.85
2023-05-23T22:31:36.411Z,7.03
2023-05-23T22:34:07.946Z,7.35
2023-05-23T22:36:37.779Z,7.43
2023-05-23T22:39:08.487Z,7.45
2023-05-23T22:41:37.895Z,7.55
2023-05-23T22:44:07.398Z,7.93
2023-05-23T22:46:37.156Z,6.97
2023-05-23T22:49:09.897Z,7.00
2023-05-23T22:51:40.834Z,6.55
2023-05-23T22:54:10.441Z,6.28
2023-05-23T22:56:40.055Z,6.60
2023-05-23T22:59:09.650Z,6.75
2023-05-23T23:01:39.665Z,7.45
2023-05-23T23:04:10.917Z,7.78
2023-05-23T23:06:43.502Z,7.80
2023-05-23T23:09:14.729Z,7.93
2023-05-23T23:11:44.257Z,8.25
2023-05-23T23:14:14.048Z,8.43
2023-05-23T23:16:43.842Z,8.77
2023-05-23T23:19:15.108Z,8.80
2023-05-23T23:21:44.831Z,7.93
2023-05-23T23:24:14.428Z,7.82
2023-05-23T23:26:44.028Z,8.95
2023-05-23T23:29:13.641Z,8.65
2023-05-23T23:31:43.163Z,8.30
2023-05-23T23:34:14.489Z,8.70
2023-05-23T23:36:44.311Z,7.60
2023-05-23T23:39:14.220Z,7.88
2023-05-23T23:41:44.025Z,8.77
2023-05-23T23:44:13.842Z,8.02
2023-05-23T23:46:43.666Z,7.45
2023-05-23T23:49:15.730Z,8.35
2023-05-23T23:51:45.530Z,8.05
2023-05-23T23:54:15.135Z,8.05
2023-05-23T23:56:44.631Z,8.43
2023-05-23T23:59:14.315Z,8.00
